createdAt,value
2019-04-30T00:00:18.311Z,13.79
2019-04-30T00:03:39.073Z,13.80
2019-04-30T00:06:41.142Z,13.84
2019-04-30T00:09:44.959Z,13.86
2019-04-30T00:12:47.260Z,13.86
2019-04-30T00:15:52.807Z,13.91
2019-04-30T00:18:59.875Z,14.04
2019-04-30T00:22:00.360Z,14.09
2019-04-30T00:25:00.746Z,14.15
2019-04-30T00:28:07.230Z,14.20
2019-04-30T00:31:06.631Z,14.25
2019-04-30T00:34:08.686Z,14.30
2019-04-30T00:37:14.002Z,14.20
2019-04-30T00:40:15.375Z,14.20
2019-04-30T00:43:17.473Z,14.20
2019-04-30T00:46:25.306Z,14.20
2019-04-30T00:49:27.293Z,13.98
2019-04-30T00:52:33.848Z,13.90
2019-04-30T00:55:38.147Z,13.98
2019-04-30T00:58:39.459Z,14.07
2019-04-30T01:01:48.096Z,14.03
2019-04-30T01:04:51.654Z,13.99
2019-04-30T01:07:55.013Z,13.95
2019-04-30T01:10:59.791Z,13.86
2019-04-30T01:14:00.886Z,13.78
2019-04-30T01:17:03.861Z,13.66
2019-04-30T01:20:09.395Z,13.59
2019-04-30T01:23:14.740Z,13.51
2019-04-30T01:26:18.605Z,13.49
2019-04-30T01:29:20.586Z,13.36
2019-04-30T01:32:22.500Z,13.36
2019-04-30T01:35:30.904Z,13.39
2019-04-30T01:38:28.780Z,13.40
2019-04-30T01:41:31.431Z,13.38
2019-04-30T01:44:33.593Z,13.39
2019-04-30T01:47:35.500Z,13.33
2019-04-30T01:50:38.631Z,13.21
2019-04-30T01:53:43.663Z,13.10
2019-04-30T01:56:52.672Z,13.00
2019-04-30T02:00:02.173Z,12.92
2019-04-30T02:03:05.489Z,12.89
2019-04-30T02:06:09.135Z,12.89
2019-04-30T02:09:11.317Z,12.98
2019-04-30T02:12:13.187Z,13.01
2019-04-30T02:15:15.119Z,13.05
2019-04-30T02:18:17.021Z,13.10
2019-04-30T02:21:19.431Z,13.15
2019-04-30T02:24:21.855Z,13.25
2019-04-30T02:27:23.743Z,13.30
2019-04-30T02:30:25.666Z,13.34
2019-04-30T02:33:30.715Z,13.36
2019-04-30T02:36:34.628Z,13.39
2019-04-30T02:39:36.542Z,13.41
2019-04-30T02:42:39.798Z,13.39
2019-04-30T02:45:45.101Z,13.33
2019-04-30T02:48:50.476Z,13.26
2019-04-30T02:51:55.297Z,13.18
2019-04-30T02:54:59.315Z,12.96
2019-04-30T02:58:01.704Z,12.76
2019-04-30T03:01:03.557Z,12.60
2019-04-30T03:04:05.455Z,12.48
2019-04-30T03:07:09.767Z,12.43
2019-04-30T03:10:11.445Z,12.32
2019-04-30T03:13:13.337Z,12.20
2019-04-30T03:16:17.070Z,12.18
2019-04-30T03:19:40.245Z,12.15
2019-04-30T03:22:42.774Z,12.14
2019-04-30T03:25:44.651Z,12.09
2019-04-30T03:28:49.185Z,12.06
2019-04-30T03:31:52.438Z,12.08
2019-04-30T03:34:54.357Z,12.11
2019-04-30T03:37:59.307Z,12.04
2019-04-30T03:41:01.299Z,12.00
2019-04-30T03:44:17.374Z,12.00
2019-04-30T03:47:10.583Z,12.00
2019-04-30T03:50:11.945Z,11.97
2019-04-30T03:53:13.876Z,11.95
2019-04-30T03:56:15.777Z,11.91
2019-04-30T03:59:19.972Z,11.93
2019-04-30T04:02:26.046Z,11.88
2019-04-30T04:05:44.819Z,11.81
2019-04-30T04:08:49.045Z,11.85
2019-04-30T04:11:51.246Z,11.77
2019-04-30T04:14:53.197Z,11.78
2019-04-30T04:17:55.143Z,11.75
2019-04-30T04:21:08.728Z,11.73
2019-04-30T04:24:00.959Z,11.71
2019-04-30T04:27:03.936Z,11.75
2019-04-30T04:30:10.725Z,11.78
2019-04-30T04:33:12.760Z,11.80
2019-04-30T04:36:14.757Z,12.03
2019-04-30T04:39:16.701Z,12.31
2019-04-30T04:42:19.584Z,12.52
2019-04-30T04:45:21.954Z,12.69
2019-04-30T04:48:23.926Z,12.68
2019-04-30T04:51:36.718Z,12.59
2019-04-30T04:54:30.230Z,12.61
2019-04-30T04:57:32.296Z,12.64
2019-04-30T05:00:34.164Z,12.69
2019-04-30T05:03:39.923Z,12.79
2019-04-30T05:06:41.855Z,13.53
2019-04-30T05:09:43.859Z,13.80
2019-04-30T05:12:45.740Z,13.67
2019-04-30T05:15:51.293Z,13.53
2019-04-30T05:18:51.586Z,13.41
2019-04-30T05:21:53.562Z,13.26
2019-04-30T05:24:55.525Z,13.37
2019-04-30T05:27:58.672Z,13.37
2019-04-30T05:31:00.850Z,13.65
2019-04-30T05:34:03.007Z,14.92
2019-04-30T05:37:05.038Z,15.89
2019-04-30T05:40:09.207Z,17.13
2019-04-30T05:43:11.325Z,18.19
2019-04-30T05:46:14.134Z,19.09
2019-04-30T05:49:16.236Z,19.19
2019-04-30T05:52:19.914Z,18.64
2019-04-30T05:55:22.108Z,17.99
2019-04-30T05:58:24.095Z,17.44
2019-04-30T06:01:26.080Z,17.04
2019-04-30T06:04:29.444Z,16.65
2019-04-30T06:07:31.528Z,16.13
2019-04-30T06:10:35.448Z,15.75
2019-04-30T06:13:45.228Z,15.48
2019-04-30T06:17:06.085Z,15.05
2019-04-30T06:20:17.872Z,14.59
2019-04-30T06:23:12.159Z,14.22
2019-04-30T06:26:14.268Z,14.04
2019-04-30T06:29:16.235Z,13.87
2019-04-30T06:32:18.868Z,13.71
2019-04-30T06:35:20.989Z,13.70
2019-04-30T06:38:22.889Z,13.72
2019-04-30T06:41:24.931Z,13.76
2019-04-30T06:44:37.009Z,13.95
2019-04-30T06:47:33.603Z,14.68
2019-04-30T06:50:35.927Z,15.55
2019-04-30T06:53:39.166Z,16.22
2019-04-30T06:56:41.220Z,16.58
2019-04-30T06:59:43.259Z,16.97
2019-04-30T07:02:46.666Z,17.34
2019-04-30T07:05:49.211Z,17.55
2019-04-30T07:09:06.324Z,18.05
2019-04-30T07:12:27.213Z,18.62
2019-04-30T07:15:22.809Z,19.16
2019-04-30T07:18:24.764Z,19.47
2019-04-30T07:21:29.434Z,19.26
2019-04-30T07:24:31.668Z,18.77
2019-04-30T07:27:33.813Z,18.51
2019-04-30T07:30:35.843Z,18.77
2019-04-30T07:33:39.608Z,19.37
2019-04-30T07:36:48.289Z,19.79
2019-04-30T07:39:45.532Z,20.15
2019-04-30T07:42:49.317Z,21.38
2019-04-30T07:45:51.469Z,21.38
2019-04-30T07:48:53.448Z,22.36
2019-04-30T07:51:57.697Z,23.19
2019-04-30T07:55:00.895Z,23.47
2019-04-30T07:58:02.763Z,23.01
2019-04-30T08:01:04.715Z,22.56
2019-04-30T08:04:14.357Z,22.50
2019-04-30T08:07:16.304Z,22.43
2019-04-30T08:10:18.884Z,22.52
2019-04-30T08:13:22.058Z,22.30
2019-04-30T08:16:24.560Z,22.04
2019-04-30T08:19:26.494Z,21.95
2019-04-30T08:22:29.720Z,21.78
2019-04-30T08:25:32.014Z,22.44
2019-04-30T08:28:34.004Z,22.43
2019-04-30T08:31:40.678Z,22.79
2019-04-30T08:34:40.803Z,22.94
2019-04-30T08:37:42.741Z,22.10
2019-04-30T08:40:55.597Z,20.63
2019-04-30T08:43:49.690Z,20.63
2019-04-30T08:46:51.939Z,19.94
2019-04-30T08:49:53.895Z,19.47
2019-04-30T08:52:56.107Z,19.09
2019-04-30T08:55:59.154Z,18.83
2019-04-30T08:59:01.314Z,18.87
2019-04-30T09:02:13.640Z,18.81
2019-04-30T09:05:18.623Z,18.71
2019-04-30T09:08:20.592Z,18.36
2019-04-30T09:11:30.167Z,17.96
2019-04-30T09:14:26.339Z,17.81
2019-04-30T09:17:29.689Z,17.69
2019-04-30T09:20:31.920Z,17.47
2019-04-30T09:23:44.115Z,17.37
2019-04-30T09:26:39.191Z,17.61
2019-04-30T09:30:02.224Z,17.96
2019-04-30T09:33:06.070Z,18.28
2019-04-30T09:36:09.230Z,18.65
2019-04-30T09:39:11.626Z,18.65
2019-04-30T09:42:13.572Z,18.62
2019-04-30T09:45:15.763Z,18.77
2019-04-30T09:48:19.017Z,19.10
2019-04-30T09:51:24.197Z,19.15
2019-04-30T09:54:29.009Z,19.17
2019-04-30T09:57:31.749Z,19.49
2019-04-30T10:00:33.697Z,19.69
2019-04-30T10:03:36.441Z,19.96
2019-04-30T10:06:40.356Z,20.28
2019-04-30T10:09:42.440Z,20.60
2019-04-30T10:12:44.411Z,20.80
2019-04-30T10:15:50.133Z,21.40
2019-04-30T10:18:53.640Z,21.40
2019-04-30T10:21:58.961Z,21.48
2019-04-30T10:25:06.675Z,21.34
2019-04-30T10:28:09.969Z,21.12
2019-04-30T10:31:12.755Z,21.16
2019-04-30T10:34:15.204Z,21.21
2019-04-30T10:37:18.919Z,21.21
2019-04-30T10:40:21.169Z,21.05
2019-04-30T10:43:23.213Z,21.08
2019-04-30T10:46:25.995Z,20.98
2019-04-30T10:49:29.167Z,20.92
2019-04-30T10:52:32.183Z,21.18
2019-04-30T10:55:38.749Z,21.18
2019-04-30T10:58:41.119Z,21.64
2019-04-30T11:01:43.074Z,21.64
2019-04-30T11:04:44.984Z,21.93
2019-04-30T11:07:46.926Z,22.24
2019-04-30T11:10:48.796Z,22.42
2019-04-30T11:13:50.743Z,22.46
2019-04-30T11:16:52.980Z,22.41
2019-04-30T11:19:55.576Z,22.49
2019-04-30T11:22:58.203Z,22.36
2019-04-30T11:26:01.213Z,22.31
2019-04-30T11:29:04.074Z,22.37
2019-04-30T11:32:08.200Z,22.35
2019-04-30T11:35:10.703Z,22.53
2019-04-30T11:38:12.655Z,22.60
2019-04-30T11:41:14.688Z,22.57
2019-04-30T11:44:29.853Z,22.30
2019-04-30T11:47:25.598Z,22.25
2019-04-30T11:50:30.014Z,22.41
2019-04-30T11:53:31.385Z,22.52
2019-04-30T11:56:33.790Z,22.29
2019-04-30T11:59:35.768Z,22.28
2019-04-30T12:02:39.442Z,22.19
2019-04-30T12:05:41.429Z,22.22
2019-04-30T12:09:00.613Z,22.27
2019-04-30T12:12:02.593Z,22.31
2019-04-30T12:15:06.357Z,22.22
2019-04-30T12:18:09.366Z,22.05
2019-04-30T12:21:12.415Z,22.01
2019-04-30T12:24:14.361Z,21.99
2019-04-30T12:27:16.264Z,22.18
2019-04-30T12:30:20.742Z,22.16
2019-04-30T12:33:23.195Z,22.14
2019-04-30T12:36:25.154Z,22.06
2019-04-30T12:39:29.807Z,21.96
2019-04-30T12:42:51.767Z,21.79
2019-04-30T12:46:02.658Z,21.66
2019-04-30T12:49:05.511Z,21.45
2019-04-30T12:52:11.755Z,21.32
2019-04-30T12:55:32.247Z,21.36
2019-04-30T12:58:34.228Z,21.36
2019-04-30T13:01:36.157Z,21.36
2019-04-30T13:07:42.015Z,21.76
2019-04-30T13:10:45.191Z,21.90
2019-04-30T13:13:50.035Z,21.99
2019-04-30T13:16:51.504Z,21.96
2019-04-30T13:19:53.580Z,21.70
2019-04-30T13:22:55.491Z,21.65
2019-04-30T13:25:58.469Z,21.53
2019-04-30T13:29:18.280Z,21.62
2019-04-30T13:32:29.556Z,21.66
2019-04-30T13:35:24.066Z,21.44
2019-04-30T13:38:28.926Z,21.34
2019-04-30T13:41:38.163Z,21.25
2019-04-30T13:44:40.406Z,21.25
2019-04-30T13:47:42.352Z,21.23
2019-04-30T13:50:44.481Z,21.21
2019-04-30T13:53:46.423Z,21.23
2019-04-30T13:56:49.337Z,21.39
2019-04-30T14:03:01.638Z,21.61
2019-04-30T14:06:05.029Z,21.88
2019-04-30T14:09:27.145Z,21.88
2019-04-30T14:12:30.949Z,22.00
2019-04-30T14:15:33.107Z,22.02
2019-04-30T14:18:35.048Z,22.18
2019-04-30T14:21:39.003Z,22.33
2019-04-30T14:24:40.996Z,22.32
2019-04-30T14:27:49.425Z,22.45
2019-04-30T14:30:46.907Z,22.49
2019-04-30T14:33:48.805Z,22.45
2019-04-30T14:36:50.777Z,22.29
2019-04-30T14:39:53.218Z,22.23
2019-04-30T14:43:04.625Z,22.18
2019-04-30T14:46:27.644Z,21.99
2019-04-30T14:49:39.131Z,21.74
2019-04-30T14:52:43.787Z,21.62
2019-04-30T14:55:49.447Z,21.62
2019-04-30T14:59:09.851Z,21.87
2019-04-30T15:02:19.508Z,21.87
2019-04-30T15:05:21.842Z,21.99
2019-04-30T15:08:23.812Z,21.99
2019-04-30T15:11:25.805Z,21.95
2019-04-30T15:14:27.737Z,21.92
2019-04-30T15:17:29.821Z,21.87
2019-04-30T15:20:31.785Z,21.63
2019-04-30T15:23:38.157Z,21.63
2019-04-30T15:26:41.336Z,21.42
2019-04-30T15:29:43.485Z,21.42
2019-04-30T15:32:47.231Z,21.31
2019-04-30T15:35:50.316Z,21.16
2019-04-30T15:39:10.763Z,21.23
2019-04-30T15:42:13.286Z,21.18
2019-04-30T15:45:16.937Z,21.07
2019-04-30T15:48:19.627Z,21.08
2019-04-30T15:51:21.848Z,21.11
2019-04-30T15:54:24.151Z,20.98
2019-04-30T15:57:26.126Z,20.88
2019-04-30T16:00:31.333Z,20.84
2019-04-30T16:03:38.585Z,20.76
2019-04-30T16:06:40.629Z,20.66
2019-04-30T16:09:48.606Z,20.54
2019-04-30T16:13:09.694Z,20.52
2019-04-30T16:16:13.190Z,20.39
2019-04-30T16:19:15.369Z,20.24
2019-04-30T16:22:19.179Z,20.31
2019-04-30T16:25:21.481Z,20.30
2019-04-30T16:28:23.433Z,20.20
2019-04-30T16:31:25.442Z,20.12
2019-04-30T16:34:30.146Z,20.14
2019-04-30T16:37:31.323Z,20.05
2019-04-30T16:40:33.237Z,20.00
2019-04-30T16:43:35.194Z,19.91
2019-04-30T16:46:37.153Z,19.80
2019-04-30T16:49:39.147Z,19.76
2019-04-30T16:52:41.089Z,19.71
2019-04-30T16:55:43.274Z,19.73
2019-04-30T16:59:02.335Z,19.64
2019-04-30T17:02:04.706Z,19.69
2019-04-30T17:05:11.255Z,19.49
2019-04-30T17:08:31.435Z,19.39
2019-04-30T17:11:53.201Z,19.23
2019-04-30T17:15:14.001Z,19.07
2019-04-30T17:18:15.908Z,19.02
2019-04-30T17:21:19.703Z,18.93
2019-04-30T17:24:22.714Z,18.87
2019-04-30T17:27:24.774Z,18.75
2019-04-30T17:30:29.327Z,18.64
2019-04-30T17:33:31.592Z,18.51
2019-04-30T17:36:35.003Z,18.38
2019-04-30T17:39:40.851Z,18.28
2019-04-30T17:42:41.122Z,18.15
2019-04-30T17:45:43.795Z,18.04
2019-04-30T17:48:45.728Z,17.91
2019-04-30T17:51:49.135Z,17.81
2019-04-30T17:54:51.295Z,17.67
2019-04-30T17:57:55.033Z,17.55
2019-04-30T18:01:00.666Z,17.41
2019-04-30T18:04:02.668Z,17.28
2019-04-30T18:07:05.149Z,17.20
2019-04-30T18:10:09.154Z,17.07
2019-04-30T18:13:12.406Z,16.98
2019-04-30T18:16:14.380Z,16.84
2019-04-30T18:19:34.571Z,16.78
2019-04-30T18:22:41.510Z,16.72
2019-04-30T18:25:48.166Z,16.55
2019-04-30T18:28:50.353Z,16.46
2019-04-30T18:31:52.302Z,16.36
2019-04-30T18:34:54.393Z,16.29
2019-04-30T18:37:58.649Z,16.17
2019-04-30T18:41:00.767Z,16.08
2019-04-30T18:44:03.935Z,16.01
2019-04-30T18:47:05.891Z,15.86
2019-04-30T18:50:10.231Z,15.82
2019-04-30T18:53:18.539Z,15.80
2019-04-30T18:56:20.726Z,15.79
2019-04-30T18:59:22.859Z,15.75
2019-04-30T19:02:24.799Z,15.65
2019-04-30T19:05:29.362Z,15.55
2019-04-30T19:08:35.273Z,15.42
2019-04-30T19:11:49.390Z,15.28
2019-04-30T19:14:53.897Z,15.14
2019-04-30T19:18:00.496Z,15.05
2019-04-30T19:21:05.654Z,15.01
2019-04-30T19:24:08.641Z,15.00
2019-04-30T19:27:10.938Z,14.97
2019-04-30T19:30:15.132Z,14.97
2019-04-30T19:33:18.781Z,14.94
2019-04-30T19:36:35.104Z,14.94
2019-04-30T19:39:26.752Z,14.95
2019-04-30T19:42:29.770Z,14.93
2019-04-30T19:45:39.292Z,14.93
2019-04-30T19:48:44.436Z,14.89
2019-04-30T19:51:46.767Z,14.87
2019-04-30T19:54:50.895Z,14.85
2019-04-30T19:57:55.274Z,14.82
2019-04-30T20:00:59.421Z,14.79
2019-04-30T20:04:01.388Z,14.71
2019-04-30T20:07:03.436Z,14.67
2019-04-30T20:10:09.069Z,14.65
2019-04-30T20:13:11.737Z,14.66
2019-04-30T20:16:13.688Z,14.68
2019-04-30T20:19:18.144Z,14.66
2019-04-30T20:22:20.440Z,14.58
2019-04-30T20:25:24.346Z,14.53
2019-04-30T20:28:38.526Z,14.49
2019-04-30T20:31:32.377Z,14.39
2019-04-30T20:34:34.317Z,14.30
2019-04-30T20:37:40.965Z,14.29
2019-04-30T20:40:57.036Z,14.27
2019-04-30T20:43:49.433Z,14.32
2019-04-30T20:46:54.283Z,14.34
2019-04-30T20:49:58.688Z,14.26
2019-04-30T20:53:00.609Z,14.18
2019-04-30T20:56:02.649Z,14.16
2019-04-30T20:59:08.086Z,14.16
2019-04-30T21:02:09.414Z,14.13
2019-04-30T21:05:11.763Z,14.08
2019-04-30T21:08:13.747Z,13.99
2019-04-30T21:11:16.944Z,13.91
2019-04-30T21:14:19.390Z,13.87
2019-04-30T21:17:21.501Z,13.91
2019-04-30T21:20:23.485Z,13.91
2019-04-30T21:23:25.444Z,13.92
2019-04-30T21:26:27.424Z,13.92
2019-04-30T21:29:29.654Z,13.97
2019-04-30T21:32:50.542Z,13.97
2019-04-30T21:35:54.329Z,13.96
2019-04-30T21:38:56.400Z,13.97
2019-04-30T21:41:59.426Z,13.97
2019-04-30T21:45:01.622Z,13.99
2019-04-30T21:48:03.589Z,14.00
2019-04-30T21:51:05.518Z,13.95
2019-04-30T21:54:07.520Z,13.94
2019-04-30T21:57:09.431Z,13.90
2019-04-30T22:00:14.931Z,13.81
2019-04-30T22:03:19.698Z,13.77
2019-04-30T22:06:21.864Z,13.69
2019-04-30T22:09:23.851Z,13.63
2019-04-30T22:12:25.794Z,13.58
2019-04-30T22:15:27.884Z,13.49
2019-04-30T22:18:29.872Z,13.44
2019-04-30T22:21:31.914Z,13.34
2019-04-30T22:24:33.913Z,13.25
2019-04-30T22:27:35.829Z,13.19
2019-04-30T22:30:37.832Z,13.09
2019-04-30T22:33:39.877Z,12.99
2019-04-30T22:36:43.628Z,12.96
2019-04-30T22:39:49.555Z,12.94
2019-04-30T22:42:51.474Z,12.88
2019-04-30T22:46:01.274Z,12.72
2019-04-30T22:49:03.322Z,12.65
2019-04-30T22:52:05.354Z,12.50
2019-04-30T22:55:07.530Z,12.41
2019-04-30T22:58:09.519Z,12.42
2019-04-30T23:01:19.722Z,12.42
2019-04-30T23:04:28.147Z,12.43
2019-04-30T23:07:31.175Z,12.36
2019-04-30T23:10:35.954Z,12.32
2019-04-30T23:13:39.071Z,12.26
2019-04-30T23:16:41.280Z,12.26
2019-04-30T23:19:49.347Z,12.24
2019-04-30T23:22:48.498Z,12.22
2019-04-30T23:25:51.515Z,12.15
2019-04-30T23:28:53.525Z,12.06
2019-04-30T23:31:55.420Z,11.96
2019-04-30T23:34:57.437Z,11.88
2019-04-30T23:37:59.339Z,11.83
2019-04-30T23:41:01.321Z,11.72
2019-04-30T23:44:03.545Z,11.65
2019-04-30T23:47:05.566Z,11.47
2019-04-30T23:50:07.478Z,11.33
2019-04-30T23:53:09.675Z,11.22
2019-04-30T23:56:11.623Z,11.12
2019-04-30T23:59:13.508Z,11.02
